sensor_id;sensor_type;location;lat;lon;timestamp;P1;durP1;ratioP1;P2;durP2;ratioP2
9056;SDS011;4563;54.756;9.400;2023-02-03T00:00:25;16.57;;;3.43;;
9056;SDS011;4563;54.756;9.400;2023-02-03T00:02:55;17.70;;;2.57;;
9056;SDS011;4563;54.756;9.400;2023-02-03T00:05:22;28.27;;;3.70;;
9056;SDS011;4563;54.756;9.400;2023-02-03T00:07:49;26.87;;;2.43;;
9056;SDS011;4563;54.756;9.400;2023-02-03T00:10:18;35.83;;;3.70;;
9056;SDS011;4563;54.756;9.400;2023-02-03T00:12:45;25.80;;;2.90;;
9056;SDS011;4563;54.756;9.400;2023-02-03T00:15:13;33.30;;;2.87;;
9056;SDS011;4563;54.756;9.400;2023-02-03T00:17:39;20.40;;;2.53;;
9056;SDS011;4563;54.756;9.400;2023-02-03T00:20:07;26.00;;;2.90;;
9056;SDS011;4563;54.756;9.400;2023-02-03T00:22:34;29.00;;;2.83;;
9056;SDS011;4563;54.756;9.400;2023-02-03T00:25:01;29.13;;;2.90;;
9056;SDS011;4563;54.756;9.400;2023-02-03T00:27:30;34.30;;;3.40;;
9056;SDS011;4563;54.756;9.400;2023-02-03T00:29:57;38.43;;;3.33;;
9056;SDS011;4563;54.756;9.400;2023-02-03T00:32:24;29.87;;;3.20;;
9056;SDS011;4563;54.756;9.400;2023-02-03T00:34:51;32.00;;;3.07;;
9056;SDS011;4563;54.756;9.400;2023-02-03T00:37:18;48.13;;;4.70;;
9056;SDS011;4563;54.756;9.400;2023-02-03T00:39:44;36.00;;;3.40;;
9056;SDS011;4563;54.756;9.400;2023-02-03T00:42:11;39.33;;;2.77;;
9056;SDS011;4563;54.756;9.400;2023-02-03T00:44:39;31.47;;;2.47;;
9056;SDS011;4563;54.756;9.400;2023-02-03T00:47:06;33.37;;;2.73;;
9056;SDS011;4563;54.756;9.400;2023-02-03T00:49:33;30.87;;;3.10;;
9056;SDS011;4563;54.756;9.400;2023-02-03T00:51:59;26.97;;;2.67;;
9056;SDS011;4563;54.756;9.400;2023-02-03T00:54:26;36.40;;;3.00;;
9056;SDS011;4563;54.756;9.400;2023-02-03T00:56:53;36.07;;;3.23;;
9056;SDS011;4563;54.756;9.400;2023-02-03T00:59:20;35.67;;;2.83;;
9056;SDS011;4563;54.756;9.400;2023-02-03T01:01:48;36.47;;;4.03;;
9056;SDS011;4563;54.756;9.400;2023-02-03T01:04:15;34.13;;;3.37;;
9056;SDS011;4563;54.756;9.400;2023-02-03T01:06:41;40.73;;;3.00;;
9056;SDS011;4563;54.756;9.400;2023-02-03T01:09:08;47.43;;;3.47;;
9056;SDS011;4563;54.756;9.400;2023-02-03T01:11:35;52.40;;;3.50;;
9056;SDS011;4563;54.756;9.400;2023-02-03T01:14:02;47.83;;;3.73;;
9056;SDS011;4563;54.756;9.400;2023-02-03T01:16:29;36.30;;;2.77;;
9056;SDS011;4563;54.756;9.400;2023-02-03T01:19:01;34.10;;;2.57;;
9056;SDS011;4563;54.756;9.400;2023-02-03T01:21:28;29.23;;;3.17;;
9056;SDS011;4563;54.756;9.400;2023-02-03T01:23:55;39.37;;;3.60;;
9056;SDS011;4563;54.756;9.400;2023-02-03T01:26:23;33.13;;;3.23;;
9056;SDS011;4563;54.756;9.400;2023-02-03T01:28:50;33.60;;;2.93;;
9056;SDS011;4563;54.756;9.400;2023-02-03T01:31:19;36.17;;;3.27;;
9056;SDS011;4563;54.756;9.400;2023-02-03T01:33:47;46.67;;;3.77;;
9056;SDS011;4563;54.756;9.400;2023-02-03T01:36:15;34.17;;;3.27;;
9056;SDS011;4563;54.756;9.400;2023-02-03T01:38:43;41.60;;;3.40;;
9056;SDS011;4563;54.756;9.400;2023-02-03T01:41:12;38.93;;;3.43;;
9056;SDS011;4563;54.756;9.400;2023-02-03T01:43:40;40.80;;;3.83;;
9056;SDS011;4563;54.756;9.400;2023-02-03T01:46:14;54.07;;;3.90;;
9056;SDS011;4563;54.756;9.400;2023-02-03T01:48:47;47.83;;;3.63;;
9056;SDS011;4563;54.756;9.400;2023-02-03T01:51:16;34.20;;;2.73;;
9056;SDS011;4563;54.756;9.400;2023-02-03T01:53:43;41.23;;;3.40;;
9056;SDS011;4563;54.756;9.400;2023-02-03T01:56:10;29.80;;;2.90;;
9056;SDS011;4563;54.756;9.400;2023-02-03T01:58:38;42.27;;;4.40;;
9056;SDS011;4563;54.756;9.400;2023-02-03T02:01:07;48.90;;;3.83;;
9056;SDS011;4563;54.756;9.400;2023-02-03T02:03:35;42.27;;;3.30;;
9056;SDS011;4563;54.756;9.400;2023-02-03T02:06:06;27.37;;;2.43;;
9056;SDS011;4563;54.756;9.400;2023-02-03T02:08:36;28.83;;;3.60;;
9056;SDS011;4563;54.756;9.400;2023-02-03T02:11:05;38.97;;;3.77;;
9056;SDS011;4563;54.756;9.400;2023-02-03T02:13:33;31.27;;;3.53;;
9056;SDS011;4563;54.756;9.400;2023-02-03T02:16:02;38.47;;;3.13;;
9056;SDS011;4563;54.756;9.400;2023-02-03T02:18:44;38.77;;;3.67;;
9056;SDS011;4563;54.756;9.400;2023-02-03T02:21:32;55.00;;;3.80;;
9056;SDS011;4563;54.756;9.400;2023-02-03T02:24:19;42.93;;;2.90;;
9056;SDS011;4563;54.756;9.400;2023-02-03T02:27:17;43.13;;;3.33;;
9056;SDS011;4563;54.756;9.400;2023-02-03T02:32:57;51.93;;;3.10;;
9056;SDS011;4563;54.756;9.400;2023-02-03T02:35:30;39.80;;;3.83;;
9056;SDS011;4563;54.756;9.400;2023-02-03T02:38:08;53.60;;;3.57;;
9056;SDS011;4563;54.756;9.400;2023-02-03T02:40:42;37.70;;;2.80;;
9056;SDS011;4563;54.756;9.400;2023-02-03T02:43:17;41.80;;;4.27;;
9056;SDS011;4563;54.756;9.400;2023-02-03T02:45:48;40.53;;;3.57;;
9056;SDS011;4563;54.756;9.400;2023-02-03T02:48:20;37.67;;;3.63;;
9056;SDS011;4563;54.756;9.400;2023-02-03T02:50:51;41.37;;;2.87;;
9056;SDS011;4563;54.756;9.400;2023-02-03T02:53:20;35.47;;;3.07;;
9056;SDS011;4563;54.756;9.400;2023-02-03T02:55:51;48.93;;;4.33;;
9056;SDS011;4563;54.756;9.400;2023-02-03T02:58:21;41.63;;;3.60;;
9056;SDS011;4563;54.756;9.400;2023-02-03T03:10:57;44.93;;;3.90;;
9056;SDS011;4563;54.756;9.400;2023-02-03T03:13:28;43.67;;;6.73;;
9056;SDS011;4563;54.756;9.400;2023-02-03T03:15:58;38.07;;;3.97;;
9056;SDS011;4563;54.756;9.400;2023-02-03T03:18:29;37.63;;;4.33;;
9056;SDS011;4563;54.756;9.400;2023-02-03T03:21:00;46.53;;;3.77;;
9056;SDS011;4563;54.756;9.400;2023-02-03T03:23:31;45.27;;;3.10;;
9056;SDS011;4563;54.756;9.400;2023-02-03T03:26:03;38.73;;;3.70;;
9056;SDS011;4563;54.756;9.400;2023-02-03T03:28:36;35.23;;;3.40;;
9056;SDS011;4563;54.756;9.400;2023-02-03T03:31:10;35.27;;;3.93;;
9056;SDS011;4563;54.756;9.400;2023-02-03T03:33:37;44.60;;;4.37;;
9056;SDS011;4563;54.756;9.400;2023-02-03T03:36:06;46.07;;;3.80;;
9056;SDS011;4563;54.756;9.400;2023-02-03T03:38:41;42.00;;;3.90;;
9056;SDS011;4563;54.756;9.400;2023-02-03T03:41:13;47.50;;;4.27;;
9056;SDS011;4563;54.756;9.400;2023-02-03T03:43:47;46.03;;;4.17;;
9056;SDS011;4563;54.756;9.400;2023-02-03T03:46:18;40.53;;;3.40;;
9056;SDS011;4563;54.756;9.400;2023-02-03T03:48:51;42.87;;;4.30;;
9056;SDS011;4563;54.756;9.400;2023-02-03T03:51:22;44.83;;;4.23;;
9056;SDS011;4563;54.756;9.400;2023-02-03T03:53:54;42.93;;;4.13;;
9056;SDS011;4563;54.756;9.400;2023-02-03T03:56:25;35.73;;;3.70;;
9056;SDS011;4563;54.756;9.400;2023-02-03T03:58:54;50.90;;;4.63;;
9056;SDS011;4563;54.756;9.400;2023-02-03T04:01:24;44.10;;;4.33;;
9056;SDS011;4563;54.756;9.400;2023-02-03T04:03:53;43.53;;;3.87;;
9056;SDS011;4563;54.756;9.400;2023-02-03T04:06:23;46.07;;;5.43;;
9056;SDS011;4563;54.756;9.400;2023-02-03T04:08:50;53.33;;;4.50;;
9056;SDS011;4563;54.756;9.400;2023-02-03T04:11:17;38.07;;;3.77;;
9056;SDS011;4563;54.756;9.400;2023-02-03T04:13:59;48.37;;;3.80;;
9056;SDS011;4563;54.756;9.400;2023-02-03T04:16:26;45.50;;;4.60;;
9056;SDS011;4563;54.756;9.400;2023-02-03T04:18:53;49.73;;;4.80;;
9056;SDS011;4563;54.756;9.400;2023-02-03T04:21:20;43.83;;;4.20;;
9056;SDS011;4563;54.756;9.400;2023-02-03T04:23:47;44.97;;;3.90;;
9056;SDS011;4563;54.756;9.400;2023-02-03T04:26:14;43.30;;;4.77;;
9056;SDS011;4563;54.756;9.400;2023-02-03T04:28:42;58.70;;;3.83;;
9056;SDS011;4563;54.756;9.400;2023-02-03T04:31:10;39.10;;;3.63;;
9056;SDS011;4563;54.756;9.400;2023-02-03T04:33:37;55.30;;;4.83;;
9056;SDS011;4563;54.756;9.400;2023-02-03T04:36:04;42.07;;;4.20;;
9056;SDS011;4563;54.756;9.400;2023-02-03T04:38:31;48.33;;;4.60;;
9056;SDS011;4563;54.756;9.400;2023-02-03T04:40:58;51.00;;;4.27;;
9056;SDS011;4563;54.756;9.400;2023-02-03T04:43:25;42.30;;;4.03;;
9056;SDS011;4563;54.756;9.400;2023-02-03T04:45:52;46.07;;;4.13;;
9056;SDS011;4563;54.756;9.400;2023-02-03T04:48:20;47.00;;;5.27;;
9056;SDS011;4563;54.756;9.400;2023-02-03T04:50:47;41.23;;;5.37;;
9056;SDS011;4563;54.756;9.400;2023-02-03T04:53:13;30.33;;;4.20;;
9056;SDS011;4563;54.756;9.400;2023-02-03T04:55:40;40.33;;;4.47;;
9056;SDS011;4563;54.756;9.400;2023-02-03T04:58:11;51.60;;;5.00;;
9056;SDS011;4563;54.756;9.400;2023-02-03T05:00:37;44.90;;;4.87;;
9056;SDS011;4563;54.756;9.400;2023-02-03T05:03:04;52.40;;;4.97;;
9056;SDS011;4563;54.756;9.400;2023-02-03T05:05:32;44.23;;;4.40;;
9056;SDS011;4563;54.756;9.400;2023-02-03T05:07:59;47.87;;;4.43;;
9056;SDS011;4563;54.756;9.400;2023-02-03T05:10:26;44.57;;;4.20;;
9056;SDS011;4563;54.756;9.400;2023-02-03T05:12:53;40.30;;;4.40;;
9056;SDS011;4563;54.756;9.400;2023-02-03T05:15:19;36.77;;;4.43;;
9056;SDS011;4563;54.756;9.400;2023-02-03T05:17:46;49.10;;;4.53;;
9056;SDS011;4563;54.756;9.400;2023-02-03T05:20:13;39.00;;;4.47;;
9056;SDS011;4563;54.756;9.400;2023-02-03T05:22:41;45.07;;;5.57;;
9056;SDS011;4563;54.756;9.400;2023-02-03T05:25:08;41.23;;;4.80;;
9056;SDS011;4563;54.756;9.400;2023-02-03T05:27:36;44.73;;;4.77;;
9056;SDS011;4563;54.756;9.400;2023-02-03T05:30:04;50.57;;;5.17;;
9056;SDS011;4563;54.756;9.400;2023-02-03T05:32:31;54.43;;;5.27;;
9056;SDS011;4563;54.756;9.400;2023-02-03T05:34:58;45.13;;;4.60;;
9056;SDS011;4563;54.756;9.400;2023-02-03T05:37:25;42.80;;;5.33;;
9056;SDS011;4563;54.756;9.400;2023-02-03T05:39:53;42.30;;;4.73;;
9056;SDS011;4563;54.756;9.400;2023-02-03T05:42:44;43.77;;;5.60;;
9056;SDS011;4563;54.756;9.400;2023-02-03T05:45:11;35.07;;;3.53;;
9056;SDS011;4563;54.756;9.400;2023-02-03T05:47:38;49.50;;;6.20;;
9056;SDS011;4563;54.756;9.400;2023-02-03T05:50:05;43.23;;;5.33;;
9056;SDS011;4563;54.756;9.400;2023-02-03T05:52:32;49.27;;;4.83;;
9056;SDS011;4563;54.756;9.400;2023-02-03T05:55:00;40.93;;;4.23;;
9056;SDS011;4563;54.756;9.400;2023-02-03T05:57:27;43.03;;;5.93;;
9056;SDS011;4563;54.756;9.400;2023-02-03T05:59:53;37.33;;;4.40;;
9056;SDS011;4563;54.756;9.400;2023-02-03T06:02:20;44.73;;;4.43;;
9056;SDS011;4563;54.756;9.400;2023-02-03T06:04:47;40.33;;;3.77;;
9056;SDS011;4563;54.756;9.400;2023-02-03T06:07:14;40.53;;;4.83;;
9056;SDS011;4563;54.756;9.400;2023-02-03T06:09:40;35.20;;;3.60;;
9056;SDS011;4563;54.756;9.400;2023-02-03T06:12:09;41.57;;;4.63;;
9056;SDS011;4563;54.756;9.400;2023-02-03T06:14:35;37.83;;;4.33;;
9056;SDS011;4563;54.756;9.400;2023-02-03T06:17:02;38.47;;;4.87;;
9056;SDS011;4563;54.756;9.400;2023-02-03T06:19:29;48.33;;;4.67;;
9056;SDS011;4563;54.756;9.400;2023-02-03T06:21:56;49.80;;;5.10;;
9056;SDS011;4563;54.756;9.400;2023-02-03T06:24:23;54.30;;;5.20;;
9056;SDS011;4563;54.756;9.400;2023-02-03T06:26:49;46.07;;;4.80;;
9056;SDS011;4563;54.756;9.400;2023-02-03T06:29:18;56.87;;;5.27;;
9056;SDS011;4563;54.756;9.400;2023-02-03T06:31:44;52.00;;;5.80;;
9056;SDS011;4563;54.756;9.400;2023-02-03T06:34:11;40.77;;;5.37;;
9056;SDS011;4563;54.756;9.400;2023-02-03T06:36:38;40.30;;;4.63;;
9056;SDS011;4563;54.756;9.400;2023-02-03T06:39:05;42.17;;;4.57;;
9056;SDS011;4563;54.756;9.400;2023-02-03T06:41:31;35.27;;;4.43;;
9056;SDS011;4563;54.756;9.400;2023-02-03T06:43:58;43.57;;;4.27;;
9056;SDS011;4563;54.756;9.400;2023-02-03T06:46:26;34.87;;;4.60;;
9056;SDS011;4563;54.756;9.400;2023-02-03T06:48:54;49.50;;;5.03;;
9056;SDS011;4563;54.756;9.400;2023-02-03T06:51:21;39.93;;;5.27;;
9056;SDS011;4563;54.756;9.400;2023-02-03T06:53:48;34.27;;;4.93;;
9056;SDS011;4563;54.756;9.400;2023-02-03T06:56:15;46.57;;;5.40;;
9056;SDS011;4563;54.756;9.400;2023-02-03T06:58:42;35.77;;;4.47;;
9056;SDS011;4563;54.756;9.400;2023-02-03T07:01:09;36.30;;;5.13;;
9056;SDS011;4563;54.756;9.400;2023-02-03T07:03:38;35.50;;;4.90;;
9056;SDS011;4563;54.756;9.400;2023-02-03T07:06:05;38.23;;;4.30;;
9056;SDS011;4563;54.756;9.400;2023-02-03T07:08:32;34.63;;;4.53;;
9056;SDS011;4563;54.756;9.400;2023-02-03T07:10:59;34.30;;;4.63;;
9056;SDS011;4563;54.756;9.400;2023-02-03T07:13:26;29.37;;;4.83;;
9056;SDS011;4563;54.756;9.400;2023-02-03T07:15:52;42.50;;;5.80;;
9056;SDS011;4563;54.756;9.400;2023-02-03T07:18:19;41.27;;;4.93;;
9056;SDS011;4563;54.756;9.400;2023-02-03T07:20:50;40.33;;;5.90;;
9056;SDS011;4563;54.756;9.400;2023-02-03T07:23:18;30.23;;;5.57;;
9056;SDS011;4563;54.756;9.400;2023-02-03T07:25:45;38.30;;;5.10;;
9056;SDS011;4563;54.756;9.400;2023-02-03T07:28:12;33.97;;;5.97;;
9056;SDS011;4563;54.756;9.400;2023-02-03T07:30:39;38.33;;;6.67;;
9056;SDS011;4563;54.756;9.400;2023-02-03T07:33:06;40.07;;;6.00;;
9056;SDS011;4563;54.756;9.400;2023-02-03T07:35:33;35.00;;;6.33;;
9056;SDS011;4563;54.756;9.400;2023-02-03T07:38:01;36.37;;;6.13;;
9056;SDS011;4563;54.756;9.400;2023-02-03T07:40:27;43.50;;;8.17;;
9056;SDS011;4563;54.756;9.400;2023-02-03T07:42:54;45.43;;;7.17;;
9056;SDS011;4563;54.756;9.400;2023-02-03T07:45:21;42.07;;;7.90;;
9056;SDS011;4563;54.756;9.400;2023-02-03T07:47:48;39.00;;;7.20;;
9056;SDS011;4563;54.756;9.400;2023-02-03T07:50:15;49.53;;;8.00;;
9056;SDS011;4563;54.756;9.400;2023-02-03T07:52:42;44.43;;;7.93;;
9056;SDS011;4563;54.756;9.400;2023-02-03T07:55:11;47.63;;;8.27;;
9056;SDS011;4563;54.756;9.400;2023-02-03T07:57:37;43.93;;;8.27;;
9056;SDS011;4563;54.756;9.400;2023-02-03T08:00:07;39.40;;;7.60;;
9056;SDS011;4563;54.756;9.400;2023-02-03T08:02:35;44.87;;;9.27;;
9056;SDS011;4563;54.756;9.400;2023-02-03T08:05:02;48.33;;;7.47;;
9056;SDS011;4563;54.756;9.400;2023-02-03T08:07:29;40.03;;;7.30;;
9056;SDS011;4563;54.756;9.400;2023-02-03T08:09:56;54.40;;;7.90;;
9056;SDS011;4563;54.756;9.400;2023-02-03T08:12:24;44.57;;;8.07;;
9056;SDS011;4563;54.756;9.400;2023-02-03T08:14:51;48.90;;;8.57;;
9056;SDS011;4563;54.756;9.400;2023-02-03T08:17:17;46.43;;;7.13;;
9056;SDS011;4563;54.756;9.400;2023-02-03T08:19:44;45.03;;;8.43;;
9056;SDS011;4563;54.756;9.400;2023-02-03T08:22:11;49.00;;;8.30;;
9056;SDS011;4563;54.756;9.400;2023-02-03T08:24:40;43.80;;;8.07;;
9056;SDS011;4563;54.756;9.400;2023-02-03T08:27:09;38.07;;;6.67;;
9056;SDS011;4563;54.756;9.400;2023-02-03T08:29:39;35.83;;;7.80;;
9056;SDS011;4563;54.756;9.400;2023-02-03T08:32:07;45.33;;;6.07;;
9056;SDS011;4563;54.756;9.400;2023-02-03T08:34:34;46.93;;;6.70;;
9056;SDS011;4563;54.756;9.400;2023-02-03T08:37:01;35.47;;;6.80;;
9056;SDS011;4563;54.756;9.400;2023-02-03T08:39:28;41.27;;;6.57;;
9056;SDS011;4563;54.756;9.400;2023-02-03T08:41:55;38.40;;;7.27;;
9056;SDS011;4563;54.756;9.400;2023-02-03T08:44:22;44.90;;;7.90;;
9056;SDS011;4563;54.756;9.400;2023-02-03T08:46:50;47.90;;;7.30;;
9056;SDS011;4563;54.756;9.400;2023-02-03T08:49:18;39.00;;;7.43;;
9056;SDS011;4563;54.756;9.400;2023-02-03T08:51:46;40.50;;;7.03;;
9056;SDS011;4563;54.756;9.400;2023-02-03T08:54:13;51.53;;;8.10;;
9056;SDS011;4563;54.756;9.400;2023-02-03T08:56:40;49.33;;;7.87;;
9056;SDS011;4563;54.756;9.400;2023-02-03T08:59:07;44.07;;;9.40;;
9056;SDS011;4563;54.756;9.400;2023-02-03T09:01:34;45.73;;;8.50;;
9056;SDS011;4563;54.756;9.400;2023-02-03T09:04:02;46.97;;;7.17;;
9056;SDS011;4563;54.756;9.400;2023-02-03T09:06:31;43.23;;;7.87;;
9056;SDS011;4563;54.756;9.400;2023-02-03T09:08:58;31.43;;;6.30;;
9056;SDS011;4563;54.756;9.400;2023-02-03T09:11:25;47.87;;;8.13;;
9056;SDS011;4563;54.756;9.400;2023-02-03T09:13:51;34.03;;;6.57;;
9056;SDS011;4563;54.756;9.400;2023-02-03T09:16:18;37.07;;;5.80;;
9056;SDS011;4563;54.756;9.400;2023-02-03T09:18:46;33.23;;;6.70;;
9056;SDS011;4563;54.756;9.400;2023-02-03T09:21:15;34.43;;;5.67;;
9056;SDS011;4563;54.756;9.400;2023-02-03T09:23:43;21.23;;;5.00;;
9056;SDS011;4563;54.756;9.400;2023-02-03T09:26:11;23.37;;;5.53;;
9056;SDS011;4563;54.756;9.400;2023-02-03T09:28:39;29.80;;;4.97;;
9056;SDS011;4563;54.756;9.400;2023-02-03T09:31:07;24.60;;;4.77;;
9056;SDS011;4563;54.756;9.400;2023-02-03T09:33:35;31.43;;;5.57;;
9056;SDS011;4563;54.756;9.400;2023-02-03T09:36:03;32.20;;;6.07;;
9056;SDS011;4563;54.756;9.400;2023-02-03T09:38:33;36.10;;;7.37;;
9056;SDS011;4563;54.756;9.400;2023-02-03T09:41:01;34.37;;;7.33;;
9056;SDS011;4563;54.756;9.400;2023-02-03T09:43:37;38.20;;;6.03;;
9056;SDS011;4563;54.756;9.400;2023-02-03T09:46:11;43.97;;;8.40;;
9056;SDS011;4563;54.756;9.400;2023-02-03T09:48:41;41.00;;;7.13;;
9056;SDS011;4563;54.756;9.400;2023-02-03T09:51:15;50.73;;;7.77;;
9056;SDS011;4563;54.756;9.400;2023-02-03T09:53:48;37.63;;;6.73;;
9056;SDS011;4563;54.756;9.400;2023-02-03T09:56:22;42.83;;;7.67;;
9056;SDS011;4563;54.756;9.400;2023-02-03T09:58:54;45.27;;;8.00;;
9056;SDS011;4563;54.756;9.400;2023-02-03T10:01:21;48.07;;;7.97;;
9056;SDS011;4563;54.756;9.400;2023-02-03T10:03:55;43.57;;;8.00;;
9056;SDS011;4563;54.756;9.400;2023-02-03T10:06:29;38.40;;;6.50;;
9056;SDS011;4563;54.756;9.400;2023-02-03T10:09:10;42.23;;;7.67;;
9056;SDS011;4563;54.756;9.400;2023-02-03T10:14:51;50.67;;;8.50;;
9056;SDS011;4563;54.756;9.400;2023-02-03T10:17:29;37.77;;;6.87;;
9056;SDS011;4563;54.756;9.400;2023-02-03T10:20:00;42.43;;;8.10;;
9056;SDS011;4563;54.756;9.400;2023-02-03T10:22:30;34.20;;;7.17;;
9056;SDS011;4563;54.756;9.400;2023-02-03T10:25:02;34.00;;;6.57;;
9056;SDS011;4563;54.756;9.400;2023-02-03T10:27:32;40.90;;;6.73;;
9056;SDS011;4563;54.756;9.400;2023-02-03T10:30:03;37.30;;;7.07;;
9056;SDS011;4563;54.756;9.400;2023-02-03T10:32:39;44.77;;;6.50;;
9056;SDS011;4563;54.756;9.400;2023-02-03T10:35:09;32.07;;;5.80;;
9056;SDS011;4563;54.756;9.400;2023-02-03T10:37:39;35.33;;;6.47;;
9056;SDS011;4563;54.756;9.400;2023-02-03T10:40:11;41.60;;;7.13;;
9056;SDS011;4563;54.756;9.400;2023-02-03T10:42:40;37.83;;;7.97;;
9056;SDS011;4563;54.756;9.400;2023-02-03T10:45:35;43.73;;;7.27;;
9056;SDS011;4563;54.756;9.400;2023-02-03T10:48:03;45.40;;;7.07;;
9056;SDS011;4563;54.756;9.400;2023-02-03T10:50:35;42.53;;;5.70;;
9056;SDS011;4563;54.756;9.400;2023-02-03T10:53:21;40.30;;;6.83;;
9056;SDS011;4563;54.756;9.400;2023-02-03T10:55:58;40.97;;;6.97;;
9056;SDS011;4563;54.756;9.400;2023-02-03T10:58:28;37.37;;;6.07;;
9056;SDS011;4563;54.756;9.400;2023-02-03T11:01:02;32.40;;;6.43;;
9056;SDS011;4563;54.756;9.400;2023-02-03T11:03:31;36.07;;;7.20;;
9056;SDS011;4563;54.756;9.400;2023-02-03T11:06:03;39.37;;;7.00;;
9056;SDS011;4563;54.756;9.400;2023-02-03T11:08:32;38.03;;;6.67;;
9056;SDS011;4563;54.756;9.400;2023-02-03T11:11:05;32.50;;;6.17;;
9056;SDS011;4563;54.756;9.400;2023-02-03T11:13:34;35.67;;;6.83;;
9056;SDS011;4563;54.756;9.400;2023-02-03T11:16:02;40.37;;;7.50;;
9056;SDS011;4563;54.756;9.400;2023-02-03T11:18:35;44.43;;;7.53;;
9056;SDS011;4563;54.756;9.400;2023-02-03T11:21:16;46.20;;;6.80;;
9056;SDS011;4563;54.756;9.400;2023-02-03T11:23:52;36.30;;;6.30;;
9056;SDS011;4563;54.756;9.400;2023-02-03T11:26:23;33.10;;;6.10;;
9056;SDS011;4563;54.756;9.400;2023-02-03T11:28:53;33.83;;;6.57;;
9056;SDS011;4563;54.756;9.400;2023-02-03T11:31:23;43.60;;;7.53;;
9056;SDS011;4563;54.756;9.400;2023-02-03T11:33:55;38.37;;;6.83;;
9056;SDS011;4563;54.756;9.400;2023-02-03T11:36:28;33.13;;;6.10;;
9056;SDS011;4563;54.756;9.400;2023-02-03T11:39:16;34.93;;;6.73;;
9056;SDS011;4563;54.756;9.400;2023-02-03T11:41:53;43.43;;;7.07;;
9056;SDS011;4563;54.756;9.400;2023-02-03T11:44:22;30.20;;;5.70;;
9056;SDS011;4563;54.756;9.400;2023-02-03T11:46:54;34.87;;;6.27;;
9056;SDS011;4563;54.756;9.400;2023-02-03T11:49:41;34.57;;;6.07;;
9056;SDS011;4563;54.756;9.400;2023-02-03T11:52:28;24.83;;;6.37;;
9056;SDS011;4563;54.756;9.400;2023-02-03T11:55:10;32.73;;;7.03;;
9056;SDS011;4563;54.756;9.400;2023-02-03T11:57:49;33.77;;;6.33;;
9056;SDS011;4563;54.756;9.400;2023-02-03T12:00:27;37.70;;;7.50;;
9056;SDS011;4563;54.756;9.400;2023-02-03T12:03:11;33.73;;;6.60;;
9056;SDS011;4563;54.756;9.400;2023-02-03T12:06:10;27.43;;;6.23;;
9056;SDS011;4563;54.756;9.400;2023-02-03T12:08:53;35.00;;;7.43;;
9056;SDS011;4563;54.756;9.400;2023-02-03T12:11:46;43.27;;;8.43;;
9056;SDS011;4563;54.756;9.400;2023-02-03T12:14:29;43.07;;;7.73;;
9056;SDS011;4563;54.756;9.400;2023-02-03T12:17:12;44.80;;;8.83;;
9056;SDS011;4563;54.756;9.400;2023-02-03T12:19:58;41.13;;;8.07;;
9056;SDS011;4563;54.756;9.400;2023-02-03T12:22:32;35.03;;;7.03;;
9056;SDS011;4563;54.756;9.400;2023-02-03T12:25:14;31.27;;;7.90;;
9056;SDS011;4563;54.756;9.400;2023-02-03T12:27:53;43.13;;;7.33;;
9056;SDS011;4563;54.756;9.400;2023-02-03T12:30:31;38.17;;;7.47;;
9056;SDS011;4563;54.756;9.400;2023-02-03T12:33:03;37.77;;;6.60;;
9056;SDS011;4563;54.756;9.400;2023-02-03T12:35:37;47.17;;;7.90;;
9056;SDS011;4563;54.756;9.400;2023-02-03T12:38:12;40.73;;;6.73;;
9056;SDS011;4563;54.756;9.400;2023-02-03T12:40:46;36.03;;;6.50;;
9056;SDS011;4563;54.756;9.400;2023-02-03T12:43:19;42.83;;;6.60;;
9056;SDS011;4563;54.756;9.400;2023-02-03T12:45:53;36.43;;;7.17;;
9056;SDS011;4563;54.756;9.400;2023-02-03T12:48:24;37.60;;;6.83;;
9056;SDS011;4563;54.756;9.400;2023-02-03T12:50:58;42.67;;;7.80;;
9056;SDS011;4563;54.756;9.400;2023-02-03T12:53:29;46.90;;;7.73;;
9056;SDS011;4563;54.756;9.400;2023-02-03T12:56:00;41.03;;;7.43;;
9056;SDS011;4563;54.756;9.400;2023-02-03T12:58:31;48.83;;;7.60;;
9056;SDS011;4563;54.756;9.400;2023-02-03T13:01:03;35.67;;;6.53;;
9056;SDS011;4563;54.756;9.400;2023-02-03T13:03:35;35.20;;;6.37;;
9056;SDS011;4563;54.756;9.400;2023-02-03T13:06:10;41.13;;;6.97;;
9056;SDS011;4563;54.756;9.400;2023-02-03T13:08:42;45.63;;;7.23;;
9056;SDS011;4563;54.756;9.400;2023-02-03T13:11:18;40.60;;;8.40;;
9056;SDS011;4563;54.756;9.400;2023-02-03T13:13:49;38.07;;;7.43;;
9056;SDS011;4563;54.756;9.400;2023-02-03T13:16:23;41.77;;;7.53;;
9056;SDS011;4563;54.756;9.400;2023-02-03T13:18:54;37.20;;;7.87;;
9056;SDS011;4563;54.756;9.400;2023-02-03T13:21:25;42.60;;;7.93;;
9056;SDS011;4563;54.756;9.400;2023-02-03T13:23:52;37.17;;;7.53;;
9056;SDS011;4563;54.756;9.400;2023-02-03T13:26:24;31.17;;;6.13;;
9056;SDS011;4563;54.756;9.400;2023-02-03T13:29:10;42.43;;;7.47;;
9056;SDS011;4563;54.756;9.400;2023-02-03T13:31:53;45.67;;;8.47;;
9056;SDS011;4563;54.756;9.400;2023-02-03T13:34:39;37.70;;;7.47;;
9056;SDS011;4563;54.756;9.400;2023-02-03T13:40:26;45.40;;;8.60;;
9056;SDS011;4563;54.756;9.400;2023-02-03T13:43:03;36.90;;;6.77;;
9056;SDS011;4563;54.756;9.400;2023-02-03T13:45:37;34.43;;;6.10;;
9056;SDS011;4563;54.756;9.400;2023-02-03T13:48:10;34.00;;;6.87;;
9056;SDS011;4563;54.756;9.400;2023-02-03T13:50:41;43.23;;;7.60;;
9056;SDS011;4563;54.756;9.400;2023-02-03T13:53:14;37.17;;;7.43;;
9056;SDS011;4563;54.756;9.400;2023-02-03T13:55:43;34.90;;;6.47;;
9056;SDS011;4563;54.756;9.400;2023-02-03T13:58:20;41.20;;;8.13;;
9056;SDS011;4563;54.756;9.400;2023-02-03T14:01:03;37.13;;;6.27;;
9056;SDS011;4563;54.756;9.400;2023-02-03T14:03:53;39.13;;;7.07;;
9056;SDS011;4563;54.756;9.400;2023-02-03T14:12:16;41.50;;;6.30;;
9056;SDS011;4563;54.756;9.400;2023-02-03T14:15:20;30.07;;;5.80;;
9056;SDS011;4563;54.756;9.400;2023-02-03T14:18:04;43.77;;;6.70;;
9056;SDS011;4563;54.756;9.400;2023-02-03T14:23:42;40.30;;;6.97;;
9056;SDS011;4563;54.756;9.400;2023-02-03T14:26:23;47.17;;;7.97;;
9056;SDS011;4563;54.756;9.400;2023-02-03T14:28:59;39.67;;;6.77;;
9056;SDS011;4563;54.756;9.400;2023-02-03T14:31:27;39.33;;;7.47;;
9056;SDS011;4563;54.756;9.400;2023-02-03T14:34:01;59.13;;;8.73;;
9056;SDS011;4563;54.756;9.400;2023-02-03T14:36:35;36.97;;;6.80;;
9056;SDS011;4563;54.756;9.400;2023-02-03T14:39:29;37.57;;;7.50;;
9056;SDS011;4563;54.756;9.400;2023-02-03T14:42:22;37.57;;;7.37;;
9056;SDS011;4563;54.756;9.400;2023-02-03T14:45:07;33.03;;;5.90;;
9056;SDS011;4563;54.756;9.400;2023-02-03T14:47:48;35.60;;;7.70;;
9056;SDS011;4563;54.756;9.400;2023-02-03T14:50:32;26.77;;;6.17;;
9056;SDS011;4563;54.756;9.400;2023-02-03T14:56:16;40.53;;;7.23;;
9056;SDS011;4563;54.756;9.400;2023-02-03T14:58:49;34.37;;;6.27;;
9056;SDS011;4563;54.756;9.400;2023-02-03T15:01:23;33.33;;;4.97;;
9056;SDS011;4563;54.756;9.400;2023-02-03T15:06:46;27.63;;;5.07;;
9056;SDS011;4563;54.756;9.400;2023-02-03T15:09:15;25.27;;;5.27;;
9056;SDS011;4563;54.756;9.400;2023-02-03T15:11:51;27.17;;;4.37;;
9056;SDS011;4563;54.756;9.400;2023-02-03T15:14:22;28.30;;;5.13;;
9056;SDS011;4563;54.756;9.400;2023-02-03T15:16:54;21.37;;;4.27;;
9056;SDS011;4563;54.756;9.400;2023-02-03T15:19:23;29.33;;;3.90;;
9056;SDS011;4563;54.756;9.400;2023-02-03T15:21:52;16.40;;;3.27;;
9056;SDS011;4563;54.756;9.400;2023-02-03T15:24:20;19.37;;;3.27;;
9056;SDS011;4563;54.756;9.400;2023-02-03T15:26:51;15.73;;;2.40;;
9056;SDS011;4563;54.756;9.400;2023-02-03T15:29:25;18.93;;;2.97;;
9056;SDS011;4563;54.756;9.400;2023-02-03T15:32:05;21.33;;;4.20;;
9056;SDS011;4563;54.756;9.400;2023-02-03T15:34:38;27.77;;;4.60;;
9056;SDS011;4563;54.756;9.400;2023-02-03T15:37:09;16.63;;;3.40;;
9056;SDS011;4563;54.756;9.400;2023-02-03T15:39:46;15.77;;;3.10;;
9056;SDS011;4563;54.756;9.400;2023-02-03T15:42:22;17.80;;;3.90;;
9056;SDS011;4563;54.756;9.400;2023-02-03T15:44:54;16.67;;;3.23;;
9056;SDS011;4563;54.756;9.400;2023-02-03T15:47:25;14.93;;;2.73;;
9056;SDS011;4563;54.756;9.400;2023-02-03T15:49:59;22.17;;;3.07;;
9056;SDS011;4563;54.756;9.400;2023-02-03T15:52:34;20.17;;;3.60;;
9056;SDS011;4563;54.756;9.400;2023-02-03T15:55:13;23.90;;;3.70;;
9056;SDS011;4563;54.756;9.400;2023-02-03T15:57:57;26.97;;;4.53;;